Latest Coastal Weather Observations for Hervey Bay

IDQ60701

Issued at 8:05 pm EST Thursday 23 October 2014 (issued every 10 minutes, with the page automatically refreshed every 10 minutes)

About coastal observations | Map of coastal stations | Coastal observations for QLD | Marine services | Other Formats
Station Details ID: 040405 Name: HERVEY BAY AIRPORT Lat: -25.32 Lon: 152.88 Height: 12.98 m
Data from the previous 72 hours. | See also: Recent months at Hervey Bay
Date/Time
EST
Temp

°C
Wind Pressure Rain
since 9am
mm
Weather Cloud Vis
km
Sea
Height
m
Swell
Dir
 
Speed
knots
Gust
knots
hPa Trend Height
m
Period
s
Dir
23/08:00pm 19.9 ENE 6 9 1020.5 - 0.0 - - 10 - - - -
23/07:30pm 20.3 ENE 8 11 1020.1 - 0.0 - - 10 - - - -
23/07:00pm 20.3 E 7 11 1019.9 - 0.0 - - 10 - - - -
23/06:30pm 20.8 E 10 13 1019.4 - 0.0 - - 10 - - - -
23/06:00pm 21.2 E 9 14 1019.0 - 0.0 - - 10 - - - -
23/05:30pm 22.2 E 10 14 1018.8 - 0.0 - - 10 - - - -
23/05:00pm 23.4 E 10 13 1018.4 - 0.0 - - 10 - - - -
23/04:30pm 24.1 E 10 15 1018.1 - 0.0 - - 10 - - - -
23/04:00pm 24.7 E 11 15 1017.9 - 0.0 - - 10 - - - -
23/03:30pm 25.4 E 11 14 1018.1 - 0.0 - - 10 - - - -
23/03:00pm 25.8 E 11 15 1018.2 - 0.0 - - 10 - - - -
23/02:30pm 25.6 E 12 16 1018.1 - 0.0 - - 10 - - - -
23/02:00pm 26.3 E 10 14 1018.5 - 0.0 - - 10 - - - -
23/01:30pm 25.6 ESE 10 13 1018.7 - 0.0 - - 10 - - - -
23/01:00pm 25.0 ESE 10 16 1019.2 - 0.0 - - 10 - - - -
23/12:30pm 25.3 ESE 11 16 1019.5 - 0.0 - - 10 - - - -
23/12:00pm 25.8 E 9 15 1020.0 - 0.0 - - 10 - - - -
23/11:30am 25.4 S 9 15 1020.6 - 0.0 - - 10 - - - -
23/11:00am 25.0 SSE 8 12 1021.0 - 0.0 - - 10 - - - -
23/10:30am 24.5 ESE 8 13 1021.3 - 0.0 - - 10 - - - -
23/10:00am 24.0 SSE 7 11 1021.5 - 0.0 - - 10 - - - -
23/09:30am 23.1 SE 7 13 1021.8 - 0.0 - Partly cloudy 10 - - - -
23/09:00am 23.3 SE 7 12 1021.8 - 0.0 - - 10 - - - -
23/08:30am 22.4 SE 7 14 1022.0 - 0.0 - Partly cloudy 10 - - - -
23/08:00am 21.6 SW 7 9 1022.0 - 0.0 - - 10 - - - -
23/07:30am 20.0 SSW 7 9 1022.0 - 0.0 - - 10 - - - -
23/07:00am 17.8 SSW 7 9 1021.9 - 0.0 - - 10 - - - -
23/06:30am 16.2 SSW 7 8 1021.8 - 0.0 - - 10 - - - -
23/06:00am 15.1 SW 6 8 1021.7 - 0.0 - - 10 - - - -
23/05:30am 13.5 SW 6 7 1021.6 - 0.0 - - 10 - - - -
23/05:00am 13.3 SW 6 7 1021.6 - 0.0 - - 10 - - - -
23/04:30am 13.0 SW 4 5 1021.4 - 0.0 - - 10 - - - -
23/04:00am 13.2 WSW 4 5 1021.2 - 0.0 - Partly cloudy 10 - - - -
23/03:30am 13.8 SW 4 6 1021.0 - 0.0 - Partly cloudy 10 - - - -
23/03:00am 14.1 SW 5 6 1020.9 - 0.0 - Partly cloudy 10 - - - -
23/02:30am 13.5 SW 3 5 1020.9 - 0.0 - - 10 - - - -
23/02:00am 13.8 WSW 3 4 1020.9 - 0.0 - - 10 - - - -
23/01:30am 15.7 SSE 4 5 1021.2 - 0.0 - Partly cloudy 10 - - - -
23/01:00am 18.2 SE 5 7 1021.5 - 0.0 - Partly cloudy 10 - - - -
23/12:30am 18.1 SE 5 7 1021.8 - 0.0 - Partly cloudy 10 - - - -
23/12:00am 18.2 SE 5 7 1022.0 - 0.0 - Mostly clear 10 - - - -
 
Date/Time
EST
Temp

°C
Wind Pressure Rain
since 9am
mm
Weather Cloud Vis
km
Sea
Height
m
Swell
Dir
 
Speed
knots
Gust
knots
hPa Trend Height
m
Period
s
Dir
22/11:30pm 18.8 SE 6 8 1022.2 - 0.0 - - 10 - - - -
22/11:00pm 19.0 SE 6 8 1022.5 - 0.0 - Partly cloudy 10 - - - -
22/10:30pm 19.3 SE 7 11 1022.6 - 0.0 - - 10 - - - -
22/10:00pm 19.4 SE 7 10 1022.8 - 0.0 - - 10 - - - -
22/09:30pm 19.5 SE 8 10 1022.9 - 0.0 - - 10 - - - -
22/09:00pm 19.6 SE 9 13 1022.9 - 0.0 - - 10 - - - -
22/08:30pm 19.8 SE 10 16 1022.8 - 0.0 - - 10 - - - -
22/08:00pm 19.8 ESE 10 15 1022.6 - 0.0 - - 10 - - - -
22/07:30pm 19.7 SE 8 13 1022.6 - 0.0 - - 10 - - - -
22/07:00pm 19.8 SE 11 16 1022.4 - 0.0 - - 10 - - - -
22/06:30pm 20.4 SE 12 20 1022.1 - 0.0 - - 10 - - - -
22/06:00pm 20.5 SE 11 17 1021.9 - 0.0 - - 10 - - - -
22/05:30pm 21.2 SE 11 17 1021.6 - 0.0 - - 10 - - - -
22/05:00pm 21.9 SE 11 20 1021.4 - 0.0 - - 10 - - - -
22/04:30pm 22.8 SE 11 19 1021.1 - 0.0 - - 10 - - - -
22/04:00pm 22.9 SE 12 19 1021.1 - 0.0 - - 10 - - - -
22/03:30pm 23.4 SE 12 21 1021.0 - 0.0 - - 10 - - - -
22/03:00pm 24.0 SE 14 22 1021.0 - 0.0 - - 10 - - - -
22/02:30pm 24.5 SE 12 22 1021.0 - 0.0 - - 10 - - - -
22/02:00pm 23.8 SE 16 23 1021.5 - 0.0 - - 10 - - - -
22/01:36pm 23.7 SE 15 25 1021.8 - 0.0 - - 10 - - - -
22/01:30pm 23.9 ESE 16 23 1021.8 - 0.0 - - 10 - - - -
22/01:00pm 24.5 ESE 14 21 1022.0 - 0.0 - - 10 - - - -
22/12:30pm 24.3 SSE 12 21 1022.3 - 0.0 - - 10 - - - -
22/12:00pm 25.1 SSE 13 24 1022.7 - 0.0 - - 10 - - - -
22/11:30am 24.3 S 13 19 1022.9 - 0.0 - Partly cloudy 10 - - - -
22/11:00am 23.9 S 14 20 1023.5 - 0.0 - Partly cloudy 10 - - - -
22/10:30am 24.2 SE 12 18 1023.7 - 0.0 - Partly cloudy 10 - - - -
22/10:00am 23.2 SSE 13 19 1024.0 - 0.0 - Partly cloudy 10 - - - -
22/09:30am 23.8 SSE 13 22 1024.1 - 0.0 - Partly cloudy 10 - - - -
22/09:00am 23.3 SSE 13 23 1024.1 - 0.0 - Partly cloudy 10 - - - -
22/08:30am 22.6 SE 13 24 1024.1 - 0.0 - Partly cloudy 10 - - - -
22/08:00am 21.7 SSE 12 21 1024.1 - 0.0 - Cloudy 10 - - - -
22/07:30am 21.9 SSE 9 15 1023.7 - 0.0 - Cloudy 10 - - - -
22/07:00am 21.8 SE 11 19 1023.5 - 0.0 - Partly cloudy 10 - - - -
22/06:30am 21.6 SSE 11 17 1023.3 - 0.0 - Partly cloudy 10 - - - -
22/06:00am 20.6 SE 10 15 1023.1 - 0.0 - Cloudy 10 - - - -
22/05:30am 20.1 SE 10 17 1022.8 - 0.0 - Partly cloudy 10 - - - -
22/05:00am 20.0 SE 9 16 1022.6 - 0.0 - Partly cloudy 10 - - - -
22/04:30am 19.6 SSE 7 11 1022.5 - 0.0 - Partly cloudy 10 - - - -
22/04:00am 19.6 SSE 6 11 1022.6 - 0.0 - Partly cloudy 10 - - - -
22/03:30am 19.7 SSE 6 10 1022.5 - 0.0 - Partly cloudy 10 - - - -
22/03:00am 20.0 SSE 7 10 1022.6 - 0.0 - Mostly cloudy 10 - - - -
22/02:30am 19.9 SSE 6 9 1022.9 - 0.0 - Partly cloudy 10 - - - -
22/02:00am 19.7 SE 7 11 1023.1 - 0.0 - Partly cloudy 10 - - - -
22/01:30am 20.3 SSE 8 14 1023.5 - 0.0 - Partly cloudy 10 - - - -
22/01:00am 20.5 SE 8 16 1023.7 - 0.0 - Partly cloudy 10 - - - -
22/12:30am 20.0 SE 7 11 1024.1 - 0.0 - - 10 - - - -
22/12:00am 20.3 SSE 7 11 1024.6 - 0.0 - Partly cloudy 10 - - - -
 
Date/Time
EST
Temp

°C
Wind Pressure Rain
since 9am
mm
Weather Cloud Vis
km
Sea
Height
m
Swell
Dir
 
Speed
knots
Gust
knots
hPa Trend Height
m
Period
s
Dir
21/11:30pm 20.6 SE 8 11 1024.9 - 0.0 - Partly cloudy 10 - - - -
21/11:00pm 20.4 SE 8 11 1025.2 - 0.0 - Partly cloudy 10 - - - -
21/10:30pm 20.7 SSE 9 14 1025.4 - 0.0 - Cloudy 10 - - - -
21/10:00pm 20.7 SSE 8 12 1025.5 - 0.0 - Partly cloudy 10 - - - -
21/09:30pm 20.1 SE 9 15 1025.7 - 0.0 - Partly cloudy 10 - - - -
21/09:00pm 21.4 SE 9 16 1025.5 - 0.0 - Cloudy 10 - - - -
21/08:30pm 21.6 SE 10 15 1025.3 - 0.0 - Partly cloudy 10 - - - -
21/08:00pm 21.4 SE 9 13 1025.0 - 0.0 - Partly cloudy 10 - - - -
21/07:30pm 21.4 SE 9 15 1024.8 - 0.0 - Partly cloudy 10 - - - -
21/07:00pm 21.6 SE 9 15 1024.5 - 0.0 - Partly cloudy 10 - - - -
21/06:30pm 21.4 ESE 8 11 1024.3 - 0.0 - Partly cloudy 10 - - - -
21/06:00pm 21.3 ESE 12 17 1024.3 - 0.0 - Cloudy 10 - - - -
21/05:30pm 22.1 SSE 9 12 1023.9 - 0.0 - Partly cloudy 10 - - - -
21/05:00pm 22.1 SSE 10 15 1023.6 - 0.0 - Partly cloudy 10 - - - -
21/04:30pm 23.0 SE 10 16 1023.2 - 0.0 - Partly cloudy 10 - - - -
21/04:00pm 24.0 SE 9 14 1023.2 - 0.0 - Partly cloudy 10 - - - -
21/03:30pm 23.8 SE 10 15 1023.1 - 0.0 - Partly cloudy 10 - - - -
21/03:00pm 23.5 SE 12 17 1023.2 - 0.0 - Cloudy 10 - - - -
21/02:30pm 25.1 SE 11 15 1023.1 - 0.0 - Partly cloudy 10 - - - -
21/02:00pm 24.8 ESE 13 21 1023.2 - 0.0 - Cloudy 10 - - - -
21/01:30pm 25.1 SE 13 19 1023.5 - 0.0 - Partly cloudy 10 - - - -
21/01:00pm 25.2 SE 13 21 1023.8 - 0.0 - Partly cloudy 10 - - - -
21/12:30pm 25.6 SE 13 19 1024.2 - 0.0 - Partly cloudy 10 - - - -
21/12:00pm 25.6 SE 12 21 1024.5 - 0.0 - - 10 - - - -
21/11:30am 25.6 SE 12 18 1024.8 - 0.0 - - 10 - - - -
21/11:00am 25.7 ESE 13 19 1025.1 - 0.0 - - 10 - - - -
21/10:30am 24.8 ESE 12 18 1025.3 - 0.0 - Partly cloudy 10 - - - -
21/10:00am 24.5 SE 11 17 1025.6 - 0.0 - Cloudy 10 - - - -
21/09:30am 24.4 ESE 11 16 1025.9 - 0.0 - Partly cloudy 10 - - - -
21/09:00am 24.1 SE 10 15 1025.9 - 0.0 - - 10 - - - -
21/08:30am 23.2 SE 12 19 1025.9 - 0.0 - - 10 - - - -
21/08:00am 22.8 SE 11 15 1025.6 - 0.0 - - 10 - - - -
21/07:30am 22.5 SE 11 16 1025.3 - 0.0 - - 10 - - - -
21/07:00am 22.1 SE 8 15 1025.1 - 0.0 - - 10 - - - -
21/06:30am 21.5 SE 9 14 1024.9 - 0.0 - - 10 - - - -
21/06:00am 20.7 ESE 8 10 1024.6 - 0.0 - Partly cloudy 10 - - - -
21/05:30am 20.1 SE 7 11 1024.2 - 0.0 - Partly cloudy 10 - - - -
21/05:00am 19.1 SE 6 9 1024.0 - 0.0 - - 10 - - - -
21/04:30am 19.0 SSE 6 11 1023.8 - 0.0 - - 10 - - - -
21/04:00am 19.6 SE 5 7 1023.7 - 0.0 - Partly cloudy 10 - - - -
21/03:30am 19.2 SE 6 8 1023.6 - 0.0 - Partly cloudy 10 - - - -
21/03:00am 19.5 SE 7 13 1023.8 - 0.0 - - 10 - - - -
21/02:30am 19.5 SE 7 9 1023.7 - 0.0 - - 10 - - - -
21/02:00am 19.2 SSE 5 7 1024.0 - 0.0 - Partly cloudy 10 - - - -
21/01:30am 20.1 SE 7 12 1024.1 - 0.0 - Partly cloudy 10 - - - -
21/01:00am 19.5 SSE 5 8 1024.4 - 0.0 - Partly cloudy 10 - - - -
21/12:30am 16.4 S 4 5 1024.7 - 0.0 - Partly cloudy 10 - - - -
21/12:00am 16.2 S 5 6 1025.0 - 0.0 - Mostly clear 10 - - - -
 
Date/Time
EST
Temp

°C
Wind Pressure Rain
since 9am
mm
Weather Cloud Vis
km
Sea
Height
m
Swell
Dir
 
Speed
knots
Gust
knots
hPa Trend Height
m
Period
s
Dir
20/11:30pm 16.3 S 5 6 1025.3 - 0.0 - - 10 - - - -
20/11:00pm 16.8 S 3 5 1025.3 - 0.0 - - 10 - - - -
20/10:30pm 19.0 SSE 4 6 1025.5 - 0.0 - Partly cloudy 10 - - - -
20/10:00pm 19.8 SE 5 8 1025.5 - 0.0 - Partly cloudy 10 - - - -
20/09:30pm 19.9 SSE 4 6 1025.2 - 0.0 - Partly cloudy 10 - - - -
20/09:00pm 20.4 SE 6 8 1024.7 - 0.0 - Mostly clear 10 - - - -
20/08:30pm 20.5 ESE 8 12 1024.3 - 0.0 - - 10 - - - -

Other Formats:

Comma delimited format used in spreadsheet applications
http://www.bom.gov.au/fwo/IDQ60701/IDQ60701.95565.axf

JavaScript Object Notation format (JSON) in row-major order
http://www.bom.gov.au/fwo/IDQ60701/IDQ60701.95565.json